Mauldin, SC (29662)

1:14 PM EDT on August 28, 2015 (GMT -0400)
Woodhedge | | Change Station
CLOSE
Current Station
Personal Weather Station
Location: Mauldin, SC
Elevation: 899 ft
Nearby Weather Stations

Elev 899 ft 34.77 °N, 82.31 °W | Updated 1 minute ago

Mostly Cloudy
Mostly Cloudy
90.5 °F
Feels Like 94 °F
N
2.2
Wind Variable Wind from SW

Today
High -- | Low -- °F
--% Chance of Precip.
Yesterday
High -- | Low -- °F
Precip. -- in
6:59 AM 8:01 PM
Waxing Gibbous, 98% visible
Pressure 30.23 in
Visibility 10.0 miles
Clouds Scattered Clouds 2700 ft
Heat Index 94 °F
Dew Point 67 °F
Humidity 46%
Rainfall 0.00 in
Snow Depth Not available.
UV 8 out of 12
Pollen 8.20 out of 12
Air Quality Not available.
Flu Activity Not available.
METAR KGYH 281647Z 06008KT 10SM SCT027 26/17 A3023
Pressure 30.23 in
Visibility 10.0 miles
Clouds Scattered Clouds 2700 ft
Heat Index 94 °F
Dew Point 67 °F
Humidity 46%
Rainfall 0.00 in
Snow Depth Not available.
UV 8 out of 12
Pollen 8.20 out of 12
Air Quality Not available.
Flu Activity Not available.
METAR KGYH 281647Z 06008KT 10SM SCT027 26/17 A3023

10-Day Weather Forecast

×

Almanac

Astronomy

Aug. 28, 2015 Rise Set
Actual Time
Civil Twilight
Nautical Twilight
Astronomical Twilight
Moon
Length of Visible Light
Length of Day
Tomorrow will be .
, % of the Moon is Illuminated

Today's Extremes

State Highs State Lows

Community

WunderPhotos

Upload Photos

1,850,438 photos uploaded!

WunderBlogs® & News

Nearby

Air Quality

  Air Quality AQ Index Pollutant
Not available.

Snow Depth

Station Depth Elevation

Earthquake Activity

City Distance Mag. Time & Date
Minimum magnitude displayed is 2.5.

Coastal Water Temperatures

Place Temperature

Stations

Nearby Weather Stations

Station Location Temp. Windchill Dew Point Humidity Wind Precip. Elev Updated Type